Time;durP1;ratioP1;P1;durP2;ratioP2;P2;SDS_P1;SDS_P2;PMS_P1;PMS_P2;Temp;Humidity;BMP_temperature;BMP_pressure;BME280_temperature;BME280_humidity;BME280_pressure;Samples;Min_cycle;Max_cycle;Signal;HPM_P1;HPM_P2
2021/03/26 00:00:55;;;;;;;34.60;28.43;;;10.90;99.90;;;;;;4924371;28;20625;-63
2021/03/26 00:03:52;;;;;;;35.83;28.10;;;11.00;99.90;;;;;;4942649;28;21417;-62
2021/03/26 00:06:24;;;;;;;36.63;26.70;;;11.00;99.90;;;;;;4937834;28;20643;-62
2021/03/26 00:08:55;;;;;;;38.50;28.17;;;10.90;99.90;;;;;;4936695;28;20661;-63
2021/03/26 00:11:26;;;;;;;35.93;26.80;;;10.90;99.90;;;;;;4914292;28;22084;-63
2021/03/26 00:13:56;;;;;;;35.33;26.80;;;10.90;99.90;;;;;;4935299;28;20601;-62
2021/03/26 00:16:25;;;;;;;34.27;27.23;;;10.80;99.90;;;;;;4933895;28;21271;-64
2021/03/26 00:18:51;;;;;;;32.67;25.93;;;10.80;99.90;;;;;;4934482;28;20653;-64
2021/03/26 00:21:23;;;;;;;34.27;26.17;;;10.80;99.90;;;;;;4923833;28;20707;-63
2021/03/26 00:23:57;;;;;;;33.60;27.00;;;10.70;99.90;;;;;;4938133;28;20617;-64
2021/03/26 00:26:26;;;;;;;39.47;28.37;;;10.70;99.90;;;;;;4931709;28;20648;-64
2021/03/26 00:29:02;;;;;;;37.47;27.10;;;10.60;99.90;;;;;;4937503;28;21144;-63
2021/03/26 00:31:30;;;;;;;35.70;26.43;;;10.50;99.90;;;;;;4936627;28;20652;-63
2021/03/26 00:33:55;;;;;;;36.93;26.43;;;10.40;99.90;;;;;;4919358;28;20707;-62
2021/03/26 00:36:31;;;;;;;37.37;26.80;;;10.50;99.90;;;;;;4934376;28;20609;-63
2021/03/26 00:38:58;;;;;;;34.20;25.97;;;10.40;99.90;;;;;;4919672;28;20371;-62
2021/03/26 00:41:26;;;;;;;35.60;27.03;;;10.40;99.90;;;;;;4934276;28;20637;-64
2021/03/26 00:43:55;;;;;;;35.33;27.93;;;10.40;99.90;;;;;;4935607;28;20739;-63
2021/03/26 00:46:25;;;;;;;34.23;26.00;;;10.30;99.90;;;;;;4935402;28;20623;-63
2021/03/26 00:48:53;;;;;;;35.50;26.80;;;10.30;99.90;;;;;;4935554;28;20663;-64
2021/03/26 00:51:34;;;;;;;32.57;25.83;;;10.20;99.90;;;;;;4932097;28;21603;-63
2021/03/26 00:54:17;;;;;;;;;;;;;;;;;;;;;
2021/03/26 00:56:59;;;;;;;35.00;25.07;;;10.30;99.90;;;;;;4934249;28;21242;-63
2021/03/26 00:59:27;;;;;;;33.50;25.80;;;10.30;99.90;;;;;;4917939;28;21681;-64
2021/03/26 01:02:03;;;;;;;29.97;23.90;;;10.30;99.90;;;;;;4936066;28;20750;-67
2021/03/26 01:04:31;;;;;;;32.83;24.27;;;10.20;99.90;;;;;;4935718;28;20619;-64
2021/03/26 01:07:17;;;;;;;;;;;;;;;;;;;;;
2021/03/26 01:09:49;;;;;;;31.23;24.73;;;10.20;99.90;;;;;;4932717;28;20791;-64
2021/03/26 01:12:19;;;;;;;32.73;24.27;;;10.10;99.90;;;;;;4936025;28;20787;-63
2021/03/26 01:14:47;;;;;;;36.30;24.53;;;10.10;99.90;;;;;;4936182;28;20680;-63
2021/03/26 01:17:31;;;;;;;;;;;;;;;;;;;;;
2021/03/26 01:20:23;;;;;;;33.10;26.00;;;10.00;99.90;;;;;;4939013;28;20652;-63
2021/03/26 01:22:56;;;;;;;32.07;24.80;;;10.00;99.90;;;;;;4936750;28;20649;-63
2021/03/26 01:25:29;;;;;;;32.00;24.93;;;10.00;99.90;;;;;;4941963;28;20633;-63
2021/03/26 01:27:57;;;;;;;31.97;25.20;;;9.80;99.90;;;;;;4951169;28;20730;-62
2021/03/26 01:30:31;;;;;;;31.17;24.43;;;9.80;99.90;;;;;;4940996;28;20798;-63
2021/03/26 01:33:05;;;;;;;34.90;25.50;;;9.70;99.90;;;;;;4942530;28;21288;-63
2021/03/26 01:35:36;;;;;;;28.03;23.33;;;9.60;99.90;;;;;;4942594;28;20613;-63
2021/03/26 01:38:04;;;;;;;32.80;24.90;;;9.60;99.90;;;;;;4942644;28;20593;-63
2021/03/26 01:40:44;;;;;;;35.30;25.33;;;9.50;99.90;;;;;;4926738;28;20660;-64
2021/03/26 01:43:49;;;;;;;33.10;23.60;;;9.50;99.90;;;;;;4951300;28;21242;-65
2021/03/26 01:46:26;;;;;;;34.80;25.50;;;9.50;99.90;;;;;;4932952;28;21550;-65
2021/03/26 01:49:02;;;;;;;32.60;24.03;;;9.40;99.90;;;;;;4924828;28;21310;-65
2021/03/26 01:51:40;;;;;;;30.83;23.70;;;9.30;99.90;;;;;;4940767;28;20637;-65
2021/03/26 01:54:18;;;;;;;32.60;23.50;;;9.30;99.90;;;;;;4942146;28;20604;-65
2021/03/26 01:56:46;;;;;;;31.63;24.03;;;9.20;99.90;;;;;;4941117;28;21316;-66
2021/03/26 01:59:18;;;;;;;34.07;24.33;;;9.10;99.90;;;;;;4936603;28;21082;-65
2021/03/26 02:01:49;;;;;;;32.03;23.57;;;9.10;99.90;;;;;;4945103;28;20649;-65
2021/03/26 02:04:31;;;;;;;30.97;22.23;;;9.00;99.90;;;;;;4922623;28;20640;-66
2021/03/26 02:07:01;;;;;;;27.80;22.67;;;9.00;99.90;;;;;;4949696;28;21355;-65
2021/03/26 02:09:39;;;;;;;31.33;24.37;;;8.90;99.90;;;;;;4938904;28;20718;-65
2021/03/26 02:12:13;;;;;;;31.53;22.83;;;8.90;99.90;;;;;;4939462;28;22307;-62
2021/03/26 02:14:49;;;;;;;32.10;23.47;;;8.90;99.90;;;;;;4922325;28;22111;-64
2021/03/26 02:17:19;;;;;;;31.27;22.90;;;8.90;99.90;;;;;;4939973;28;20700;-64
2021/03/26 02:19:53;;;;;;;31.90;22.70;;;8.90;99.90;;;;;;4950307;28;20976;-63
2021/03/26 02:22:37;;;;;;;28.60;22.10;;;9.00;99.90;;;;;;4955604;28;20727;-62
2021/03/26 02:25:12;;;;;;;28.57;22.57;;;8.90;99.90;;;;;;4936566;28;20625;-63
2021/03/26 02:27:56;;;;;;;29.80;21.63;;;9.00;99.90;;;;;;4957386;28;20687;-63
2021/03/26 02:30:30;;;;;;;29.20;21.30;;;8.90;99.90;;;;;;4956403;28;20656;-62
2021/03/26 02:32:56;;;;;;;26.50;20.70;;;8.90;99.90;;;;;;4941782;28;20656;-63
2021/03/26 02:35:50;;;;;;;29.47;21.43;;;8.90;99.90;;;;;;4938955;28;20695;-63
2021/03/26 02:38:29;;;;;;;24.43;20.13;;;8.90;99.90;;;;;;4942443;28;20624;-63
2021/03/26 02:41:22;;;;;;;22.90;20.30;;;8.90;99.90;;;;;;4940277;28;20739;-63
2021/03/26 02:44:31;;;;;;;25.97;19.80;;;9.00;99.90;;;;;;4939084;28;20656;-64
2021/03/26 02:47:05;;;;;;;28.53;21.13;;;9.00;99.90;;;;;;4940191;28;20625;-64
2021/03/26 02:49:55;;;;;;;26.63;20.30;;;9.00;99.90;;;;;;4924511;28;20660;-63
2021/03/26 02:52:33;;;;;;;28.00;20.13;;;8.90;99.90;;;;;;4937338;28;20792;-63
2021/03/26 02:55:09;;;;;;;29.17;20.30;;;8.90;99.90;;;;;;4938567;28;20684;-63
2021/03/26 02:57:51;;;;;;;27.83;20.93;;;8.90;99.90;;;;;;4921635;28;20686;-62
2021/03/26 03:00:29;;;;;;;26.47;20.50;;;8.90;99.90;;;;;;4939266;28;20652;-62
2021/03/26 03:02:59;;;;;;;25.37;20.13;;;8.90;99.90;;;;;;4924247;28;20649;-63
2021/03/26 03:05:29;;;;;;;29.13;20.23;;;8.80;99.90;;;;;;4940650;28;20635;-63
2021/03/26 03:08:11;;;;;;;26.17;20.00;;;8.80;99.90;;;;;;4941984;28;21167;-64
2021/03/26 03:10:40;;;;;;;30.70;21.63;;;8.80;99.90;;;;;;4916046;28;20636;-63
2021/03/26 03:13:28;;;;;;;28.90;20.40;;;8.80;99.90;;;;;;4939684;28;20711;-63
2021/03/26 03:16:03;;;;;;;28.23;20.93;;;8.80;99.90;;;;;;4942367;28;20633;-62
2021/03/26 03:18:33;;;;;;;27.03;20.87;;;8.90;99.90;;;;;;4938563;28;20720;-63
2021/03/26 03:21:08;;;;;;;25.00;20.20;;;8.80;99.90;;;;;;4920338;28;20626;-63
2021/03/26 03:23:46;;;;;;;29.73;21.20;;;8.80;99.90;;;;;;4940082;28;23868;-63
2021/03/26 03:26:40;;;;;;;30.83;22.50;;;8.80;99.90;;;;;;4940296;28;20617;-64
2021/03/26 03:29:12;;;;;;;31.17;22.20;;;8.80;99.90;;;;;;4937674;28;20679;-63
2021/03/26 03:32:10;;;;;;;30.37;21.57;;;8.80;99.90;;;;;;4939099;28;20648;-63
2021/03/26 03:34:53;;;;;;;30.50;23.03;;;8.70;99.90;;;;;;4913513;28;20739;-67
2021/03/26 03:37:46;;;;;;;33.83;23.60;;;8.70;99.90;;;;;;4938394;28;20643;-66
2021/03/26 03:40:28;;;;;;;35.27;24.97;;;8.70;99.90;;;;;;4939115;28;20779;-65
2021/03/26 03:43:10;;;;;;;34.97;23.60;;;8.70;99.90;;;;;;4936752;28;20735;-66
2021/03/26 03:45:57;;;;;;;33.83;25.43;;;8.70;99.90;;;;;;4937970;28;20621;-65
2021/03/26 03:48:34;;;;;;;39.20;24.70;;;8.60;99.90;;;;;;4940585;28;20617;-65
2021/03/26 03:51:20;;;;;;;36.87;24.90;;;8.70;99.90;;;;;;4937640;28;20653;-63
2021/03/26 03:54:03;;;;;;;35.87;25.97;;;8.70;99.90;;;;;;4940934;28;20617;-65
2021/03/26 03:56:34;;;;;;;37.03;26.03;;;8.70;99.90;;;;;;4921341;28;20760;-65
2021/03/26 03:59:10;;;;;;;37.37;26.20;;;8.70;99.90;;;;;;4940511;28;20900;-65
2021/03/26 04:02:08;;;;;;;36.77;26.60;;;8.70;99.90;;;;;;4941094;28;20779;-65
2021/03/26 04:04:45;;;;;;;36.60;26.40;;;8.60;99.90;;;;;;4940858;28;21246;-65
2021/03/26 04:07:36;;;;;;;39.73;27.27;;;8.70;99.90;;;;;;4943825;28;20775;-65
2021/03/26 04:10:08;;;;;;;38.80;26.37;;;8.80;99.90;;;;;;4922751;28;20714;-65
2021/03/26 04:12:38;;;;;;;37.87;26.30;;;8.70;99.90;;;;;;4939164;28;20652;-65
2021/03/26 04:15:44;;;;;;;39.30;27.80;;;8.60;99.90;;;;;;4947130;28;20632;-65
2021/03/26 04:18:34;;;;;;;38.50;26.00;;;8.60;99.90;;;;;;4932942;28;20719;-65
2021/03/26 04:21:15;;;;;;;41.03;27.87;;;8.50;99.90;;;;;;4936909;28;20602;-63
2021/03/26 04:23:55;;;;;;;40.80;26.40;;;8.50;99.90;;;;;;4921501;28;20633;-63
2021/03/26 04:26:31;;;;;;;36.93;26.40;;;8.50;99.90;;;;;;4957994;28;20609;-62
2021/03/26 04:29:15;;;;;;;41.03;28.43;;;8.50;99.90;;;;;;4945274;28;20654;-62
2021/03/26 04:32:14;;;;;;;39.50;28.17;;;8.40;99.90;;;;;;4962994;28;20656;-63
2021/03/26 04:34:57;;;;;;;37.70;26.20;;;8.40;99.90;;;;;;4946503;28;20652;-62
2021/03/26 04:37:47;;;;;;;39.03;27.30;;;8.40;99.90;;;;;;4937609;28;20680;-63
2021/03/26 04:40:33;;;;;;;40.53;28.70;;;8.40;99.90;;;;;;4957719;28;20661;-64
2021/03/26 04:43:14;;;;;;;41.57;26.33;;;8.30;99.90;;;;;;4920975;28;20672;-62
2021/03/26 04:46:06;;;;;;;37.50;26.77;;;8.30;99.90;;;;;;4940403;28;21011;-64
2021/03/26 04:49:12;;;;;;;37.20;25.53;;;8.40;99.90;;;;;;4941689;28;20667;-63
2021/03/26 04:52:05;;;;;;;38.27;27.20;;;8.30;99.90;;;;;;4920713;28;20646;-63
2021/03/26 04:55:21;;;;;;;37.67;26.77;;;8.40;99.90;;;;;;4931020;28;20695;-63
2021/03/26 04:57:58;;;;;;;40.90;27.60;;;8.30;99.90;;;;;;4933637;28;20780;-63
2021/03/26 05:00:58;;;;;;;39.47;28.07;;;8.30;99.90;;;;;;4939713;28;20649;-63
2021/03/26 05:03:33;;;;;;;40.30;28.83;;;8.30;99.90;;;;;;4891182;28;20687;-65
2021/03/26 05:06:14;;;;;;;42.13;28.50;;;8.30;99.90;;;;;;4939886;28;21063;-65
2021/03/26 05:09:01;;;;;;;43.80;30.60;;;8.30;99.90;;;;;;4926125;28;20736;-65
2021/03/26 05:11:32;;;;;;;41.80;29.00;;;8.20;99.90;;;;;;4943842;28;20683;-65
2021/03/26 05:14:17;;;;;;;41.27;27.83;;;8.20;99.90;;;;;;4945935;28;22262;-65
2021/03/26 05:17:10;;;;;;;42.97;28.87;;;8.30;99.90;;;;;;4941769;28;20751;-66
2021/03/26 05:20:06;;;;;;;46.10;30.23;;;8.30;99.90;;;;;;4942487;28;20645;-65
2021/03/26 05:22:59;;;;;;;43.93;29.53;;;8.30;99.90;;;;;;4925345;28;21175;-70
2021/03/26 05:25:50;;;;;;;41.90;28.23;;;8.30;99.90;;;;;;4943444;28;20612;-65
2021/03/26 05:28:55;;;;;;;42.17;29.07;;;8.30;99.90;;;;;;4942364;28;20630;-65
2021/03/26 05:31:46;;;;;;;43.83;29.17;;;8.40;99.90;;;;;;4941907;28;21404;-65
2021/03/26 05:34:29;;;;;;;41.70;28.93;;;8.40;99.90;;;;;;4924854;28;21370;-65
2021/03/26 05:37:05;;;;;;;45.37;29.53;;;8.40;99.90;;;;;;4943966;28;21274;-67
2021/03/26 05:39:34;;;;;;;49.43;32.10;;;8.40;99.90;;;;;;4935341;28;20767;-65
2021/03/26 05:42:28;;;;;;;43.77;29.30;;;8.40;99.90;;;;;;4940803;28;20664;-65
2021/03/26 05:45:08;;;;;;;43.20;29.30;;;8.30;99.90;;;;;;4940693;28;20719;-65
2021/03/26 05:48:13;;;;;;;45.40;29.80;;;8.40;99.90;;;;;;4938899;28;22821;-66
2021/03/26 05:50:58;;;;;;;43.97;29.20;;;8.40;99.90;;;;;;4942234;28;20601;-65
2021/03/26 05:53:49;;;;;;;41.23;29.10;;;8.40;99.90;;;;;;4941288;28;20718;-65
2021/03/26 05:56:46;;;;;;;45.10;28.80;;;8.40;99.90;;;;;;4939267;28;20627;-65
2021/03/26 05:59:30;;;;;;;41.60;30.83;;;8.40;99.90;;;;;;4924873;28;20708;-65
2021/03/26 06:02:26;;;;;;;44.83;30.10;;;8.40;99.90;;;;;;4947119;28;21475;-65
2021/03/26 06:05:23;;;;;;;44.67;28.87;;;8.50;99.90;;;;;;4940735;28;20585;-62
2021/03/26 06:08:19;;;;;;;40.00;27.40;;;8.40;99.90;;;;;;4937335;28;20747;-62
2021/03/26 06:11:18;;;;;;;44.90;29.30;;;8.40;99.90;;;;;;4918344;28;21058;-64
2021/03/26 06:14:09;;;;;;;40.60;28.57;;;8.50;99.90;;;;;;4929294;28;20664;-64
2021/03/26 06:16:57;;;;;;;42.77;30.43;;;8.40;99.90;;;;;;4933737;28;20610;-64
2021/03/26 06:19:41;;;;;;;44.83;30.60;;;8.50;99.90;;;;;;4934356;28;20653;-62
2021/03/26 06:22:25;;;;;;;44.87;29.53;;;8.50;99.90;;;;;;4936923;28;20641;-64
2021/03/26 06:25:16;;;;;;;42.37;29.57;;;8.50;99.90;;;;;;4935618;28;20619;-63
2021/03/26 06:28:08;;;;;;;42.30;28.80;;;8.50;99.90;;;;;;4937495;28;21449;-63
2021/03/26 06:30:54;;;;;;;45.40;30.47;;;8.60;99.90;;;;;;4922465;28;21665;-64
2021/03/26 06:33:40;;;;;;;50.40;31.47;;;8.60;99.90;;;;;;4919505;28;20723;-63
2021/03/26 06:36:45;;;;;;;46.93;32.00;;;8.70;99.90;;;;;;4928091;28;20608;-63
2021/03/26 06:39:37;;;;;;;43.33;29.50;;;8.80;99.90;;;;;;4928293;28;20648;-63
2021/03/26 06:42:31;;;;;;;45.80;30.73;;;8.90;99.90;;;;;;4923956;28;20737;-63
2021/03/26 06:45:33;;;;;;;42.07;28.70;;;9.00;99.90;;;;;;4918252;28;20899;-62
2021/03/26 06:48:07;;;;;;;40.80;29.33;;;9.20;99.90;;;;;;4918514;28;20640;-62
2021/03/26 06:50:53;;;;;;;41.20;30.03;;;9.40;99.90;;;;;;4920711;28;21117;-64
2021/03/26 06:53:35;;;;;;;44.03;30.37;;;9.60;99.90;;;;;;4932255;28;20668;-63
2021/03/26 06:56:38;;;;;;;41.33;30.33;;;9.70;99.90;;;;;;4943038;28;21085;-63
2021/03/26 06:59:35;;;;;;;43.13;30.30;;;9.70;99.90;;;;;;4905374;28;20795;-63
2021/03/26 07:02:25;;;;;;;42.93;31.60;;;9.70;99.90;;;;;;4926553;28;20656;-63
2021/03/26 07:05:25;;;;;;;44.03;31.03;;;9.60;99.90;;;;;;4924423;28;21291;-64
2021/03/26 07:08:09;;;;;;;38.43;30.33;;;9.70;99.90;;;;;;4930869;28;24058;-66
2021/03/26 07:10:35;;;;;;;43.30;31.87;;;9.60;99.90;;;;;;4908190;28;20637;-62
2021/03/26 07:13:22;;;;;;;44.00;31.57;;;9.60;99.90;;;;;;4933264;28;20691;-65
2021/03/26 07:16:02;;;;;;;43.43;31.30;;;9.70;99.90;;;;;;4950016;28;20327;-63
2021/03/26 07:19:01;;;;;;;44.30;31.47;;;9.80;99.90;;;;;;4943607;28;20660;-63
2021/03/26 07:21:27;;;;;;;44.13;31.77;;;9.80;99.90;;;;;;4931060;28;20640;-63
2021/03/26 07:24:27;;;;;;;43.33;30.60;;;9.80;99.90;;;;;;4919586;28;20617;-63
2021/03/26 07:27:16;;;;;;;43.53;30.80;;;9.80;99.90;;;;;;4928171;28;20228;-64
2021/03/26 07:30:11;;;;;;;47.00;33.17;;;9.90;99.90;;;;;;4901306;28;20833;-63
2021/03/26 07:32:45;;;;;;;41.00;32.03;;;9.90;99.90;;;;;;4936660;28;20677;-64
2021/03/26 07:35:48;;;;;;;42.40;30.80;;;10.00;99.90;;;;;;4933636;28;21211;-63
2021/03/26 07:38:39;;;;;;;44.23;31.10;;;10.00;99.90;;;;;;4935391;28;20649;-62
2021/03/26 07:41:12;;;;;;;43.87;32.10;;;10.10;99.90;;;;;;4962428;28;21163;-64
2021/03/26 07:43:46;;;;;;;44.07;32.03;;;10.20;99.90;;;;;;4942936;28;20873;-62
2021/03/26 07:46:36;;;;;;;45.97;33.73;;;10.30;99.90;;;;;;4905385;28;20636;-62
2021/03/26 07:49:09;;;;;;;47.80;33.73;;;10.40;99.90;;;;;;4922258;28;20653;-63
2021/03/26 07:51:38;;;;;;;43.20;32.70;;;10.50;99.90;;;;;;4920258;28;20744;-61
2021/03/26 07:54:35;;;;;;;43.13;32.83;;;10.50;99.90;;;;;;4928089;28;20712;-65
2021/03/26 07:57:23;;;;;;;41.77;31.13;;;10.50;99.90;;;;;;4927636;28;21228;-66
2021/03/26 08:00:01;;;;;;;43.70;32.27;;;10.60;99.90;;;;;;4911199;28;20738;-65
2021/03/26 08:03:04;;;;;;;43.50;32.07;;;10.60;99.90;;;;;;4922104;28;20649;-65
2021/03/26 08:06:23;;;;;;;47.77;33.17;;;10.60;99.90;;;;;;4916688;28;20803;-66
2021/03/26 08:09:13;;;;;;;38.70;31.43;;;10.70;99.90;;;;;;4882267;28;20793;-66
2021/03/26 08:12:04;;;;;;;40.53;31.93;;;10.80;99.90;;;;;;4863704;28;22896;-66
2021/03/26 08:14:39;;;;;;;43.07;32.00;;;10.80;99.90;;;;;;4928069;28;20764;-65
2021/03/26 08:17:33;;;;;;;43.63;32.70;;;10.80;99.90;;;;;;4932190;28;20998;-66
2021/03/26 08:20:20;;;;;;;45.93;32.63;;;10.90;99.90;;;;;;4925444;28;20648;-67
2021/03/26 08:23:10;;;;;;;43.67;33.03;;;10.90;99.90;;;;;;4935246;28;21047;-63
2021/03/26 08:25:48;;;;;;;40.07;31.53;;;11.00;99.90;;;;;;4932458;28;20637;-64
2021/03/26 08:28:35;;;;;;;42.40;31.37;;;11.10;99.90;;;;;;4921633;28;20641;-63
2021/03/26 08:31:19;;;;;;;41.33;30.50;;;11.20;99.90;;;;;;4923111;28;20768;-62
2021/03/26 08:33:53;;;;;;;36.67;29.43;;;11.30;99.90;;;;;;4925970;28;21253;-63
2021/03/26 08:36:56;;;;;;;36.60;29.50;;;11.50;99.90;;;;;;4921122;28;20621;-62
2021/03/26 08:39:42;;;;;;;38.70;29.70;;;11.50;99.90;;;;;;4910037;28;20637;-63
2021/03/26 08:42:49;;;;;;;36.10;28.50;;;11.60;99.90;;;;;;4924840;28;20633;-63
2021/03/26 08:45:39;;;;;;;33.33;26.93;;;11.70;99.90;;;;;;4931749;28;20844;-64
2021/03/26 08:48:20;;;;;;;36.87;27.03;;;11.80;99.90;;;;;;4931403;28;21030;-63
2021/03/26 08:51:08;;;;;;;36.03;27.60;;;11.90;99.90;;;;;;4935376;28;21315;-64
2021/03/26 08:53:49;;;;;;;31.90;25.83;;;11.90;99.90;;;;;;4943531;28;20672;-64
2021/03/26 08:56:34;;;;;;;32.10;24.57;;;12.00;99.90;;;;;;4945063;28;21594;-62
2021/03/26 08:59:25;;;;;;;33.30;25.80;;;12.10;99.90;;;;;;4943976;28;20648;-64
2021/03/26 09:02:00;;;;;;;27.90;24.30;;;12.20;99.90;;;;;;4937705;28;21792;-64
2021/03/26 09:04:44;;;;;;;32.13;25.00;;;12.30;99.90;;;;;;4929471;28;22094;-63
2021/03/26 09:07:51;;;;;;;29.93;23.80;;;12.40;99.90;;;;;;4936791;28;20787;-63
2021/03/26 09:11:00;;;;;;;30.97;23.87;;;12.40;99.90;;;;;;4933198;28;20700;-63
2021/03/26 09:13:44;;;;;;;26.37;21.93;;;12.40;99.90;;;;;;4928608;28;20676;-62
2021/03/26 09:16:29;;;;;;;32.63;24.07;;;12.60;99.90;;;;;;4921808;28;23553;-62
2021/03/26 09:19:18;;;;;;;26.67;22.87;;;12.70;99.90;;;;;;4932134;28;20658;-62
2021/03/26 09:22:02;;;;;;;27.27;23.43;;;12.70;99.90;;;;;;4936596;28;20637;-64
2021/03/26 09:24:54;;;;;;;25.87;23.00;;;12.80;99.90;;;;;;4931654;28;20617;-62
2021/03/26 09:27:41;;;;;;;31.57;23.47;;;12.80;99.90;;;;;;4940699;28;20582;-62
2021/03/26 09:30:15;;;;;;;27.67;23.30;;;12.90;99.90;;;;;;4939189;28;20656;-61
2021/03/26 09:32:55;;;;;;;25.67;22.90;;;13.00;99.90;;;;;;4931316;28;21092;-63
2021/03/26 09:35:39;;;;;;;25.97;22.00;;;13.00;99.90;;;;;;4928519;28;20620;-62
2021/03/26 09:38:19;;;;;;;25.93;20.90;;;13.20;99.90;;;;;;4917657;28;20637;-62
2021/03/26 09:40:56;;;;;;;24.53;21.03;;;13.30;99.90;;;;;;4927051;28;20589;-63
2021/03/26 09:43:33;;;;;;;22.00;19.60;;;13.30;99.90;;;;;;4934779;28;20645;-63
2021/03/26 09:45:58;;;;;;;22.17;18.10;;;13.50;99.90;;;;;;4927290;28;20727;-63
2021/03/26 09:48:53;;;;;;;21.10;17.67;;;13.60;99.90;;;;;;4928864;28;20618;-63
2021/03/26 09:51:31;;;;;;;17.00;15.17;;;13.70;99.90;;;;;;4944406;28;21930;-63
2021/03/26 09:54:08;;;;;;;18.70;16.57;;;13.70;99.90;;;;;;4948083;28;21245;-62
2021/03/26 09:57:01;;;;;;;17.43;15.07;;;13.80;99.90;;;;;;4956661;28;21234;-63
2021/03/26 09:59:58;;;;;;;17.97;15.80;;;13.80;99.90;;;;;;4934945;28;20655;-64
2021/03/26 10:02:37;;;;;;;18.70;15.30;;;13.90;99.90;;;;;;4941617;28;20684;-67
2021/03/26 10:05:31;;;;;;;16.97;14.57;;;14.00;99.90;;;;;;4930515;28;20636;-63
2021/03/26 10:08:32;;;;;;;16.53;14.43;;;14.10;99.90;;;;;;4928633;28;20689;-64
2021/03/26 10:11:05;;;;;;;17.90;15.23;;;14.10;99.90;;;;;;4930303;28;21040;-63
2021/03/26 10:13:34;;;;;;;17.13;14.20;;;14.10;99.90;;;;;;4908868;28;21061;-62
2021/03/26 10:16:04;;;;;;;14.80;12.90;;;14.20;99.90;;;;;;4931523;28;21218;-63
2021/03/26 10:18:38;;;;;;;15.20;13.60;;;14.20;99.90;;;;;;4933931;28;20698;-62
2021/03/26 10:21:09;;;;;;;16.37;14.03;;;14.20;99.90;;;;;;4940799;28;20593;-62
2021/03/26 10:24:01;;;;;;;16.50;14.80;;;14.30;99.90;;;;;;4936242;28;20677;-62
2021/03/26 10:26:59;;;;;;;18.77;15.40;;;14.40;99.90;;;;;;4942978;28;20683;-62
2021/03/26 10:29:45;;;;;;;17.83;14.90;;;14.40;99.90;;;;;;4910230;28;23246;-63
2021/03/26 10:32:21;;;;;;;16.67;14.90;;;14.40;99.90;;;;;;4940574;28;23394;-63
2021/03/26 10:34:50;;;;;;;20.10;14.13;;;14.40;99.90;;;;;;4940956;28;20641;-63
2021/03/26 10:37:40;;;;;;;14.90;13.40;;;14.60;99.90;;;;;;4949721;28;20720;-64
2021/03/26 10:40:27;;;;;;;18.20;14.70;;;14.60;99.90;;;;;;4934270;28;20637;-62
2021/03/26 10:43:07;;;;;;;15.60;13.93;;;14.70;99.90;;;;;;4939384;28;20828;-64
2021/03/26 10:45:53;;;;;;;17.43;15.53;;;14.80;99.90;;;;;;4930290;28;21307;-63
2021/03/26 10:48:28;;;;;;;20.53;14.33;;;14.80;99.90;;;;;;4927030;28;21273;-64
2021/03/26 10:51:47;;;;;;;15.27;13.67;;;14.90;99.90;;;;;;4939082;28;21175;-64
2021/03/26 10:54:27;;;;;;;16.13;12.47;;;15.00;99.90;;;;;;4872509;28;20731;-64
2021/03/26 10:57:11;;;;;;;14.50;12.53;;;15.20;99.90;;;;;;4862258;29;20642;-63
2021/03/26 10:59:41;;;;;;;13.77;12.33;;;15.30;99.90;;;;;;4881554;29;20709;-62
2021/03/26 11:02:32;;;;;;;13.67;11.43;;;15.40;99.90;;;;;;4880928;28;20659;-63
2021/03/26 11:05:36;;;;;;;12.83;11.47;;;15.50;99.90;;;;;;4896575;29;20624;-62
2021/03/26 11:08:02;;;;;;;12.57;11.30;;;15.60;99.90;;;;;;4887890;29;20633;-63
2021/03/26 11:10:53;;;;;;;13.60;11.80;;;15.60;99.90;;;;;;4861447;29;21402;-63
2021/03/26 11:13:47;;;;;;;11.00;9.90;;;15.70;99.90;;;;;;4876252;29;20247;-62
2021/03/26 11:16:33;;;;;;;10.60;9.60;;;15.80;99.90;;;;;;4874193;29;20620;-61
2021/03/26 11:19:03;;;;;;;12.20;9.53;;;15.80;99.90;;;;;;4869620;29;21340;-63
2021/03/26 11:22:00;;;;;;;10.63;9.53;;;15.80;99.90;;;;;;4888111;28;21618;-62
2021/03/26 11:24:28;;;;;;;11.10;10.00;;;15.70;99.90;;;;;;4871577;28;20936;-62
2021/03/26 11:27:29;;;;;;;12.87;10.87;;;15.60;99.90;;;;;;4922433;28;20684;-62
2021/03/26 11:30:18;;;;;;;11.50;10.30;;;15.60;99.90;;;;;;4855929;29;20647;-69
2021/03/26 11:32:47;;;;;;;11.07;9.87;;;15.60;99.90;;;;;;4903095;28;20661;-63
2021/03/26 11:35:17;;;;;;;10.13;9.03;;;15.70;99.90;;;;;;4912013;28;20938;-64
2021/03/26 11:37:59;;;;;;;11.90;9.37;;;15.60;99.90;;;;;;4952407;28;20613;-62
2021/03/26 11:40:41;;;;;;;14.40;9.90;;;15.70;99.90;;;;;;4948183;28;20778;-63
2021/03/26 11:43:25;;;;;;;10.53;9.20;;;15.80;99.90;;;;;;4943949;28;20846;-62
2021/03/26 11:46:05;;;;;;;11.63;9.20;;;15.80;99.90;;;;;;4938422;28;20636;-62
2021/03/26 11:48:52;;;;;;;9.30;8.40;;;15.90;99.90;;;;;;4936493;28;20657;-63
2021/03/26 11:52:09;;;;;;;10.93;9.00;;;16.00;99.90;;;;;;4928976;28;20698;-62
2021/03/26 11:54:49;;;;;;;10.00;8.40;;;16.00;99.90;;;;;;4882440;28;20619;-62
2021/03/26 11:57:23;;;;;;;11.47;9.37;;;16.10;99.90;;;;;;4924595;28;20661;-62
2021/03/26 12:00:13;;;;;;;12.30;9.50;;;16.20;99.90;;;;;;4941897;28;20657;-62
2021/03/26 12:03:05;;;;;;;9.23;8.07;;;16.40;99.90;;;;;;4944613;28;21260;-63
2021/03/26 12:06:03;;;;;;;9.30;8.00;;;16.40;99.90;;;;;;4901164;28;21679;-63
2021/03/26 12:08:35;;;;;;;9.53;8.00;;;16.30;99.90;;;;;;4925334;28;21421;-63
2021/03/26 12:11:08;;;;;;;9.47;8.47;;;16.20;99.90;;;;;;4940669;28;20708;-62
2021/03/26 12:13:47;;;;;;;8.87;7.70;;;16.20;99.90;;;;;;4923190;28;20770;-63
2021/03/26 12:16:20;;;;;;;8.40;7.60;;;16.30;99.90;;;;;;4937946;28;20667;-63
2021/03/26 12:18:53;;;;;;;8.83;7.50;;;16.30;99.90;;;;;;4931119;28;21296;-62
2021/03/26 12:21:34;;;;;;;10.43;7.67;;;16.40;99.90;;;;;;4925981;28;20665;-63
2021/03/26 12:24:20;;;;;;;9.67;8.23;;;16.60;99.90;;;;;;4944255;28;20625;-62
2021/03/26 12:27:24;;;;;;;8.50;7.60;;;16.70;99.90;;;;;;4926882;28;20621;-63
2021/03/26 12:30:01;;;;;;;8.27;7.47;;;16.90;99.90;;;;;;4931484;28;20656;-63
2021/03/26 12:33:00;;;;;;;7.60;6.90;;;17.10;99.90;;;;;;4931386;28;20712;-63
2021/03/26 12:35:33;;;;;;;8.10;7.30;;;17.20;99.90;;;;;;4933988;28;20624;-63
2021/03/26 12:38:12;;;;;;;9.43;8.53;;;17.40;99.90;;;;;;4928028;28;20866;-63
2021/03/26 12:40:46;;;;;;;9.93;8.33;;;17.70;99.90;;;;;;4934159;28;20688;-62
2021/03/26 12:43:32;;;;;;;9.30;8.40;;;18.00;99.90;;;;;;4930770;28;20755;-62
2021/03/26 12:46:10;;;;;;;9.23;8.33;;;18.30;99.90;;;;;;4943068;28;21333;-64
2021/03/26 12:49:06;;;;;;;8.80;8.00;;;18.60;99.90;;;;;;4933497;28;21103;-63
2021/03/26 12:51:36;;;;;;;9.27;8.47;;;18.80;99.90;;;;;;4931909;28;20721;-63
2021/03/26 12:54:15;;;;;;;9.43;8.63;;;19.10;99.90;;;;;;4941171;28;21184;-64
2021/03/26 12:56:51;;;;;;;9.77;8.90;;;19.40;99.90;;;;;;4928943;28;20603;-63
2021/03/26 12:59:21;;;;;;;12.13;9.50;;;19.70;99.90;;;;;;4926703;28;20640;-63
2021/03/26 13:02:12;;;;;;;9.97;9.07;;;19.80;99.90;;;;;;4933146;28;20896;-63
2021/03/26 13:04:52;;;;;;;9.40;8.57;;;20.20;99.90;;;;;;4942066;28;20687;-62
2021/03/26 13:07:42;;;;;;;10.90;9.93;;;21.00;99.90;;;;;;4939593;28;20732;-64
2021/03/26 13:10:37;;;;;;;11.07;9.50;;;21.50;99.90;;;;;;4949449;28;20644;-64
2021/03/26 13:13:26;;;;;;;11.63;10.57;;;21.80;99.80;;;;;;4918826;28;20758;-64
2021/03/26 13:16:22;;;;;;;11.10;10.10;;;22.30;98.50;;;;;;4932702;28;21349;-63
2021/03/26 13:18:52;;;;;;;11.00;9.90;;;22.90;96.60;;;;;;4940316;28;21518;-67
2021/03/26 13:21:38;;;;;;;11.63;10.63;;;23.10;96.20;;;;;;4925594;28;21345;-66
2021/03/26 13:24:17;;;;;;;11.87;10.70;;;23.20;94.70;;;;;;4934377;28;20605;-65
2021/03/26 13:26:43;;;;;;;14.37;12.97;;;23.30;93.70;;;;;;4939977;28;20879;-66
2021/03/26 13:29:26;;;;;;;14.17;12.87;;;23.30;92.40;;;;;;4926241;28;21616;-65
2021/03/26 13:31:54;;;;;;;13.30;12.10;;;22.80;92.40;;;;;;4929829;28;21096;-66
2021/03/26 13:34:25;;;;;;;14.77;13.47;;;22.30;93.20;;;;;;4939633;28;20645;-66
2021/03/26 13:37:13;;;;;;;15.03;13.63;;;22.00;92.90;;;;;;4932711;28;20629;-66
2021/03/26 13:40:05;;;;;;;14.77;13.57;;;21.40;94.20;;;;;;4918983;28;20667;-65
2021/03/26 13:42:35;;;;;;;15.50;14.00;;;21.00;94.80;;;;;;4922811;28;21297;-66
2021/03/26 13:45:19;;;;;;;17.13;15.40;;;20.70;95.10;;;;;;4938941;28;20647;-66
2021/03/26 13:47:56;;;;;;;16.90;15.40;;;20.50;95.80;;;;;;4944305;28;21396;-65
2021/03/26 13:50:25;;;;;;;18.50;16.63;;;20.50;95.80;;;;;;4952330;28;22466;-65
2021/03/26 13:52:53;;;;;;;17.67;15.97;;;20.60;95.70;;;;;;4954151;28;20748;-65
2021/03/26 13:55:26;;;;;;;15.80;14.40;;;20.80;95.50;;;;;;4930349;28;20623;-65